sensor_id;sensor_type;location;lat;lon;timestamp;temperature;humidity
20726;DHT22;10524;48.132;8.518;2023-07-31T00:00:06;10.10;99.90
20726;DHT22;10524;48.132;8.518;2023-07-31T00:02:34;10.10;99.90
20726;DHT22;10524;48.132;8.518;2023-07-31T00:05:00;10.10;99.90
20726;DHT22;10524;48.132;8.518;2023-07-31T00:07:26;10.00;99.90
20726;DHT22;10524;48.132;8.518;2023-07-31T00:09:52;9.80;99.90
20726;DHT22;10524;48.132;8.518;2023-07-31T00:12:19;9.80;99.90
20726;DHT22;10524;48.132;8.518;2023-07-31T00:14:45;9.80;99.90
20726;DHT22;10524;48.132;8.518;2023-07-31T00:17:11;9.70;99.90
20726;DHT22;10524;48.132;8.518;2023-07-31T00:19:37;9.60;99.90
20726;DHT22;10524;48.132;8.518;2023-07-31T00:22:03;9.60;99.90
20726;DHT22;10524;48.132;8.518;2023-07-31T00:24:28;9.70;99.90
20726;DHT22;10524;48.132;8.518;2023-07-31T00:26:54;9.70;99.90
20726;DHT22;10524;48.132;8.518;2023-07-31T00:29:20;9.60;99.90
20726;DHT22;10524;48.132;8.518;2023-07-31T00:31:45;9.60;99.90
20726;DHT22;10524;48.132;8.518;2023-07-31T00:34:11;9.60;99.90
20726;DHT22;10524;48.132;8.518;2023-07-31T00:36:37;9.60;99.90
20726;DHT22;10524;48.132;8.518;2023-07-31T00:39:02;9.50;99.90
20726;DHT22;10524;48.132;8.518;2023-07-31T00:41:28;9.50;99.90
20726;DHT22;10524;48.132;8.518;2023-07-31T00:43:53;9.60;99.90
20726;DHT22;10524;48.132;8.518;2023-07-31T00:46:20;9.50;99.90
20726;DHT22;10524;48.132;8.518;2023-07-31T00:48:45;9.50;99.90
20726;DHT22;10524;48.132;8.518;2023-07-31T00:51:11;9.50;99.90
20726;DHT22;10524;48.132;8.518;2023-07-31T00:53:37;9.50;99.90
20726;DHT22;10524;48.132;8.518;2023-07-31T00:56:03;9.50;99.90
20726;DHT22;10524;48.132;8.518;2023-07-31T00:58:29;9.40;99.90
20726;DHT22;10524;48.132;8.518;2023-07-31T01:00:55;9.40;99.90
20726;DHT22;10524;48.132;8.518;2023-07-31T01:03:21;9.30;99.90
20726;DHT22;10524;48.132;8.518;2023-07-31T01:06:15;9.20;99.90
20726;DHT22;10524;48.132;8.518;2023-07-31T01:08:54;9.10;99.90
20726;DHT22;10524;48.132;8.518;2023-07-31T01:11:33;9.10;99.90
20726;DHT22;10524;48.132;8.518;2023-07-31T01:14:00;9.10;99.90
20726;DHT22;10524;48.132;8.518;2023-07-31T01:16:26;9.10;99.90
20726;DHT22;10524;48.132;8.518;2023-07-31T01:18:52;9.00;99.90
20726;DHT22;10524;48.132;8.518;2023-07-31T01:21:30;9.00;99.90
20726;DHT22;10524;48.132;8.518;2023-07-31T01:24:23;9.00;99.90
20726;DHT22;10524;48.132;8.518;2023-07-31T01:26:57;9.00;99.90
20726;DHT22;10524;48.132;8.518;2023-07-31T01:29:32;8.90;99.90
20726;DHT22;10524;48.132;8.518;2023-07-31T01:32:02;8.70;99.90
20726;DHT22;10524;48.132;8.518;2023-07-31T01:34:29;8.70;99.90
20726;DHT22;10524;48.132;8.518;2023-07-31T01:36:58;8.80;99.90
20726;DHT22;10524;48.132;8.518;2023-07-31T01:39:24;8.80;99.90
20726;DHT22;10524;48.132;8.518;2023-07-31T01:41:51;8.90;99.90
20726;DHT22;10524;48.132;8.518;2023-07-31T01:44:16;8.90;99.90
20726;DHT22;10524;48.132;8.518;2023-07-31T01:46:42;8.90;99.90
20726;DHT22;10524;48.132;8.518;2023-07-31T01:49:08;8.90;99.90
20726;DHT22;10524;48.132;8.518;2023-07-31T01:51:33;9.00;99.90
20726;DHT22;10524;48.132;8.518;2023-07-31T01:54:02;8.90;99.90
20726;DHT22;10524;48.132;8.518;2023-07-31T01:56:28;8.80;99.90
20726;DHT22;10524;48.132;8.518;2023-07-31T01:58:54;8.70;99.90
20726;DHT22;10524;48.132;8.518;2023-07-31T02:01:19;8.60;99.90
20726;DHT22;10524;48.132;8.518;2023-07-31T02:03:45;8.50;99.90
20726;DHT22;10524;48.132;8.518;2023-07-31T02:06:11;8.50;99.90
20726;DHT22;10524;48.132;8.518;2023-07-31T02:08:36;8.50;99.90
20726;DHT22;10524;48.132;8.518;2023-07-31T02:11:02;8.50;99.90
20726;DHT22;10524;48.132;8.518;2023-07-31T02:13:28;8.50;99.90
20726;DHT22;10524;48.132;8.518;2023-07-31T02:15:53;8.50;99.90
20726;DHT22;10524;48.132;8.518;2023-07-31T02:18:19;8.50;99.90
20726;DHT22;10524;48.132;8.518;2023-07-31T02:20:49;8.40;99.90
20726;DHT22;10524;48.132;8.518;2023-07-31T02:23:16;8.30;99.90
20726;DHT22;10524;48.132;8.518;2023-07-31T02:25:42;8.30;99.90
20726;DHT22;10524;48.132;8.518;2023-07-31T02:28:08;8.20;99.90
20726;DHT22;10524;48.132;8.518;2023-07-31T02:30:33;8.30;99.90
20726;DHT22;10524;48.132;8.518;2023-07-31T02:32:59;8.40;99.90
20726;DHT22;10524;48.132;8.518;2023-07-31T02:35:25;8.40;99.90
20726;DHT22;10524;48.132;8.518;2023-07-31T02:37:50;8.50;99.90
20726;DHT22;10524;48.132;8.518;2023-07-31T02:40:16;8.40;99.90
20726;DHT22;10524;48.132;8.518;2023-07-31T02:42:41;8.50;99.90
20726;DHT22;10524;48.132;8.518;2023-07-31T02:45:07;8.50;99.90
20726;DHT22;10524;48.132;8.518;2023-07-31T02:47:33;8.50;99.90
20726;DHT22;10524;48.132;8.518;2023-07-31T02:49:59;8.50;99.90
20726;DHT22;10524;48.132;8.518;2023-07-31T02:52:25;8.50;99.90
20726;DHT22;10524;48.132;8.518;2023-07-31T02:54:51;8.50;99.90
20726;DHT22;10524;48.132;8.518;2023-07-31T02:57:16;8.40;99.90
20726;DHT22;10524;48.132;8.518;2023-07-31T02:59:42;8.30;99.90
20726;DHT22;10524;48.132;8.518;2023-07-31T03:02:08;8.20;99.90
20726;DHT22;10524;48.132;8.518;2023-07-31T03:04:33;8.10;99.90
20726;DHT22;10524;48.132;8.518;2023-07-31T03:06:59;8.00;99.90
20726;DHT22;10524;48.132;8.518;2023-07-31T03:09:24;7.90;99.90
20726;DHT22;10524;48.132;8.518;2023-07-31T03:11:50;7.90;99.90
20726;DHT22;10524;48.132;8.518;2023-07-31T03:14:16;7.80;99.90
20726;DHT22;10524;48.132;8.518;2023-07-31T03:16:41;7.90;99.90
20726;DHT22;10524;48.132;8.518;2023-07-31T03:19:07;7.90;99.90
20726;DHT22;10524;48.132;8.518;2023-07-31T03:21:32;7.90;99.90
20726;DHT22;10524;48.132;8.518;2023-07-31T03:23:58;7.90;99.90
20726;DHT22;10524;48.132;8.518;2023-07-31T03:26:24;7.90;99.90
20726;DHT22;10524;48.132;8.518;2023-07-31T03:28:49;8.00;99.90
20726;DHT22;10524;48.132;8.518;2023-07-31T03:31:15;8.10;99.90
20726;DHT22;10524;48.132;8.518;2023-07-31T03:33:41;8.20;99.90
20726;DHT22;10524;48.132;8.518;2023-07-31T03:36:07;8.30;99.90
20726;DHT22;10524;48.132;8.518;2023-07-31T03:38:34;8.30;99.90
20726;DHT22;10524;48.132;8.518;2023-07-31T03:41:00;8.30;99.90
20726;DHT22;10524;48.132;8.518;2023-07-31T03:43:25;8.40;99.90
20726;DHT22;10524;48.132;8.518;2023-07-31T03:45:51;8.30;99.90
20726;DHT22;10524;48.132;8.518;2023-07-31T03:48:17;8.30;99.90
20726;DHT22;10524;48.132;8.518;2023-07-31T03:50:43;8.30;99.90
20726;DHT22;10524;48.132;8.518;2023-07-31T03:53:08;8.30;99.90
20726;DHT22;10524;48.132;8.518;2023-07-31T03:55:34;8.30;99.90
20726;DHT22;10524;48.132;8.518;2023-07-31T03:57:59;8.40;99.90
20726;DHT22;10524;48.132;8.518;2023-07-31T04:00:28;8.40;99.90
20726;DHT22;10524;48.132;8.518;2023-07-31T04:02:53;8.40;99.90
20726;DHT22;10524;48.132;8.518;2023-07-31T04:05:19;8.50;99.90
20726;DHT22;10524;48.132;8.518;2023-07-31T04:07:45;8.50;99.90
20726;DHT22;10524;48.132;8.518;2023-07-31T04:10:10;8.50;99.90
20726;DHT22;10524;48.132;8.518;2023-07-31T04:12:36;8.50;99.90
20726;DHT22;10524;48.132;8.518;2023-07-31T04:15:02;8.60;99.90
20726;DHT22;10524;48.132;8.518;2023-07-31T04:17:27;8.60;99.90
20726;DHT22;10524;48.132;8.518;2023-07-31T04:19:53;8.80;99.90
20726;DHT22;10524;48.132;8.518;2023-07-31T04:22:19;9.00;99.90
20726;DHT22;10524;48.132;8.518;2023-07-31T04:24:44;9.20;99.90
20726;DHT22;10524;48.132;8.518;2023-07-31T04:27:10;9.40;99.90
20726;DHT22;10524;48.132;8.518;2023-07-31T04:29:35;9.40;99.90
20726;DHT22;10524;48.132;8.518;2023-07-31T04:32:01;9.40;99.90
20726;DHT22;10524;48.132;8.518;2023-07-31T04:34:27;9.40;99.90
20726;DHT22;10524;48.132;8.518;2023-07-31T04:36:52;9.40;99.90
20726;DHT22;10524;48.132;8.518;2023-07-31T04:39:18;9.50;99.90
20726;DHT22;10524;48.132;8.518;2023-07-31T04:41:43;9.50;99.90
20726;DHT22;10524;48.132;8.518;2023-07-31T04:44:09;9.80;99.90
20726;DHT22;10524;48.132;8.518;2023-07-31T04:46:36;10.10;99.90
20726;DHT22;10524;48.132;8.518;2023-07-31T04:49:03;10.30;99.90
20726;DHT22;10524;48.132;8.518;2023-07-31T04:51:28;10.50;99.90
20726;DHT22;10524;48.132;8.518;2023-07-31T04:53:54;10.80;99.90
20726;DHT22;10524;48.132;8.518;2023-07-31T04:56:19;10.90;99.90
20726;DHT22;10524;48.132;8.518;2023-07-31T04:58:45;11.10;99.90
20726;DHT22;10524;48.132;8.518;2023-07-31T05:01:11;11.30;99.90
20726;DHT22;10524;48.132;8.518;2023-07-31T05:03:36;11.50;99.90
20726;DHT22;10524;48.132;8.518;2023-07-31T05:06:02;11.70;99.90
20726;DHT22;10524;48.132;8.518;2023-07-31T05:08:27;11.90;99.90
20726;DHT22;10524;48.132;8.518;2023-07-31T05:10:53;12.10;99.90
20726;DHT22;10524;48.132;8.518;2023-07-31T05:13:19;12.30;99.90
20726;DHT22;10524;48.132;8.518;2023-07-31T05:15:45;12.30;99.90
20726;DHT22;10524;48.132;8.518;2023-07-31T05:18:11;12.30;99.90
20726;DHT22;10524;48.132;8.518;2023-07-31T05:20:36;12.30;99.90
20726;DHT22;10524;48.132;8.518;2023-07-31T05:23:02;12.10;99.90
20726;DHT22;10524;48.132;8.518;2023-07-31T05:25:27;12.00;99.90
20726;DHT22;10524;48.132;8.518;2023-07-31T05:27:53;12.00;99.90
20726;DHT22;10524;48.132;8.518;2023-07-31T05:30:19;11.90;99.90
20726;DHT22;10524;48.132;8.518;2023-07-31T05:32:44;12.00;99.90
20726;DHT22;10524;48.132;8.518;2023-07-31T05:35:10;12.00;99.90
20726;DHT22;10524;48.132;8.518;2023-07-31T05:37:35;12.10;99.90
20726;DHT22;10524;48.132;8.518;2023-07-31T05:40:01;12.20;99.90
20726;DHT22;10524;48.132;8.518;2023-07-31T05:42:27;12.30;99.90
20726;DHT22;10524;48.132;8.518;2023-07-31T05:44:53;12.40;99.90
20726;DHT22;10524;48.132;8.518;2023-07-31T05:47:18;12.50;99.90
20726;DHT22;10524;48.132;8.518;2023-07-31T05:49:44;12.70;99.90
20726;DHT22;10524;48.132;8.518;2023-07-31T05:52:09;12.90;99.90
20726;DHT22;10524;48.132;8.518;2023-07-31T05:54:35;13.10;99.90
20726;DHT22;10524;48.132;8.518;2023-07-31T05:57:01;13.40;99.90
20726;DHT22;10524;48.132;8.518;2023-07-31T05:59:26;13.50;99.90
20726;DHT22;10524;48.132;8.518;2023-07-31T06:01:53;13.70;99.90
20726;DHT22;10524;48.132;8.518;2023-07-31T06:04:18;13.80;99.90
20726;DHT22;10524;48.132;8.518;2023-07-31T06:06:45;13.90;99.90
20726;DHT22;10524;48.132;8.518;2023-07-31T06:09:10;13.90;99.90
20726;DHT22;10524;48.132;8.518;2023-07-31T06:11:37;14.00;99.90
20726;DHT22;10524;48.132;8.518;2023-07-31T06:14:02;14.00;99.90
20726;DHT22;10524;48.132;8.518;2023-07-31T06:16:28;14.00;99.90
20726;DHT22;10524;48.132;8.518;2023-07-31T06:18:54;14.10;99.90
20726;DHT22;10524;48.132;8.518;2023-07-31T06:21:19;14.20;99.90
20726;DHT22;10524;48.132;8.518;2023-07-31T06:23:45;14.20;99.90
20726;DHT22;10524;48.132;8.518;2023-07-31T06:26:10;14.30;99.90
20726;DHT22;10524;48.132;8.518;2023-07-31T06:28:36;14.50;99.90
20726;DHT22;10524;48.132;8.518;2023-07-31T06:31:02;14.60;99.90
20726;DHT22;10524;48.132;8.518;2023-07-31T06:33:28;14.80;99.90
20726;DHT22;10524;48.132;8.518;2023-07-31T06:35:53;15.00;99.90
20726;DHT22;10524;48.132;8.518;2023-07-31T06:38:22;15.10;99.90
20726;DHT22;10524;48.132;8.518;2023-07-31T06:40:48;15.10;99.90
20726;DHT22;10524;48.132;8.518;2023-07-31T06:43:14;15.20;99.90
20726;DHT22;10524;48.132;8.518;2023-07-31T06:45:40;15.30;99.90
20726;DHT22;10524;48.132;8.518;2023-07-31T06:48:05;15.50;99.90
20726;DHT22;10524;48.132;8.518;2023-07-31T06:50:31;16.00;99.90
20726;DHT22;10524;48.132;8.518;2023-07-31T06:52:57;17.50;99.90
20726;DHT22;10524;48.132;8.518;2023-07-31T06:55:23;19.30;99.90
20726;DHT22;10524;48.132;8.518;2023-07-31T06:57:50;19.90;99.90
20726;DHT22;10524;48.132;8.518;2023-07-31T07:00:17;19.50;99.90
20726;DHT22;10524;48.132;8.518;2023-07-31T07:02:43;19.20;99.90
20726;DHT22;10524;48.132;8.518;2023-07-31T07:05:09;19.10;99.90
20726;DHT22;10524;48.132;8.518;2023-07-31T07:07:35;18.70;99.90
20726;DHT22;10524;48.132;8.518;2023-07-31T07:10:01;18.10;99.90
20726;DHT22;10524;48.132;8.518;2023-07-31T07:12:31;17.60;99.90
20726;DHT22;10524;48.132;8.518;2023-07-31T07:14:57;17.30;99.90
20726;DHT22;10524;48.132;8.518;2023-07-31T07:17:26;16.90;99.90
20726;DHT22;10524;48.132;8.518;2023-07-31T07:19:52;16.90;99.90
20726;DHT22;10524;48.132;8.518;2023-07-31T07:22:18;17.10;99.90
20726;DHT22;10524;48.132;8.518;2023-07-31T07:24:44;17.40;99.90
20726;DHT22;10524;48.132;8.518;2023-07-31T07:27:10;17.40;99.90
20726;DHT22;10524;48.132;8.518;2023-07-31T07:29:35;17.60;99.90
20726;DHT22;10524;48.132;8.518;2023-07-31T07:32:01;17.60;99.90
20726;DHT22;10524;48.132;8.518;2023-07-31T07:34:27;17.40;99.90
20726;DHT22;10524;48.132;8.518;2023-07-31T07:36:54;17.50;99.90
20726;DHT22;10524;48.132;8.518;2023-07-31T07:39:20;17.50;99.90
20726;DHT22;10524;48.132;8.518;2023-07-31T07:41:46;17.40;99.90
20726;DHT22;10524;48.132;8.518;2023-07-31T07:44:13;17.50;99.90
20726;DHT22;10524;48.132;8.518;2023-07-31T07:46:39;17.50;99.90
20726;DHT22;10524;48.132;8.518;2023-07-31T07:49:05;18.00;99.90
20726;DHT22;10524;48.132;8.518;2023-07-31T07:51:31;19.20;99.90
20726;DHT22;10524;48.132;8.518;2023-07-31T07:53:57;19.80;99.90
20726;DHT22;10524;48.132;8.518;2023-07-31T07:56:23;22.00;99.90
20726;DHT22;10524;48.132;8.518;2023-07-31T07:58:49;23.40;99.90
20726;DHT22;10524;48.132;8.518;2023-07-31T08:01:16;23.30;99.90
20726;DHT22;10524;48.132;8.518;2023-07-31T08:03:41;24.50;99.90
20726;DHT22;10524;48.132;8.518;2023-07-31T08:06:07;25.10;99.90
20726;DHT22;10524;48.132;8.518;2023-07-31T08:08:37;27.00;99.90
20726;DHT22;10524;48.132;8.518;2023-07-31T08:11:03;27.10;99.90
20726;DHT22;10524;48.132;8.518;2023-07-31T08:13:29;27.10;99.90
20726;DHT22;10524;48.132;8.518;2023-07-31T08:15:55;27.70;99.90
20726;DHT22;10524;48.132;8.518;2023-07-31T08:18:20;27.70;99.90
20726;DHT22;10524;48.132;8.518;2023-07-31T08:20:46;27.40;99.90
20726;DHT22;10524;48.132;8.518;2023-07-31T08:23:12;26.70;99.90
20726;DHT22;10524;48.132;8.518;2023-07-31T08:25:38;27.40;99.90
20726;DHT22;10524;48.132;8.518;2023-07-31T08:28:05;28.10;99.90
20726;DHT22;10524;48.132;8.518;2023-07-31T08:30:31;28.80;99.90
20726;DHT22;10524;48.132;8.518;2023-07-31T08:32:58;30.20;99.90
20726;DHT22;10524;48.132;8.518;2023-07-31T08:35:25;30.10;99.90
20726;DHT22;10524;48.132;8.518;2023-07-31T08:37:51;30.20;99.90
20726;DHT22;10524;48.132;8.518;2023-07-31T08:40:17;31.30;99.90
20726;DHT22;10524;48.132;8.518;2023-07-31T08:42:47;32.00;99.90
20726;DHT22;10524;48.132;8.518;2023-07-31T08:45:18;31.30;99.90
20726;DHT22;10524;48.132;8.518;2023-07-31T08:47:48;29.00;99.90
20726;DHT22;10524;48.132;8.518;2023-07-31T08:50:18;28.20;99.90
20726;DHT22;10524;48.132;8.518;2023-07-31T08:52:48;28.20;99.90
20726;DHT22;10524;48.132;8.518;2023-07-31T08:55:14;28.60;99.90
20726;DHT22;10524;48.132;8.518;2023-07-31T08:57:42;28.60;99.90
20726;DHT22;10524;48.132;8.518;2023-07-31T09:00:09;28.00;99.90
20726;DHT22;10524;48.132;8.518;2023-07-31T09:05:16;27.90;99.90
20726;DHT22;10524;48.132;8.518;2023-07-31T09:07:44;28.40;99.90
20726;DHT22;10524;48.132;8.518;2023-07-31T09:10:11;29.20;99.90
20726;DHT22;10524;48.132;8.518;2023-07-31T09:12:38;27.60;99.90
20726;DHT22;10524;48.132;8.518;2023-07-31T09:15:05;28.00;99.90
20726;DHT22;10524;48.132;8.518;2023-07-31T09:17:36;27.90;99.90
20726;DHT22;10524;48.132;8.518;2023-07-31T09:20:18;27.80;99.90
20726;DHT22;10524;48.132;8.518;2023-07-31T09:22:45;28.40;99.90
20726;DHT22;10524;48.132;8.518;2023-07-31T09:25:18;28.60;99.90
20726;DHT22;10524;48.132;8.518;2023-07-31T09:27:52;28.90;99.90
20726;DHT22;10524;48.132;8.518;2023-07-31T09:30:19;27.70;99.90
20726;DHT22;10524;48.132;8.518;2023-07-31T09:32:45;26.10;99.90
20726;DHT22;10524;48.132;8.518;2023-07-31T09:35:28;26.30;99.90
20726;DHT22;10524;48.132;8.518;2023-07-31T09:38:05;25.60;99.90
20726;DHT22;10524;48.132;8.518;2023-07-31T09:40:39;25.60;99.90
20726;DHT22;10524;48.132;8.518;2023-07-31T09:43:25;26.50;99.90
20726;DHT22;10524;48.132;8.518;2023-07-31T09:45:55;27.00;99.90
20726;DHT22;10524;48.132;8.518;2023-07-31T09:48:23;27.20;99.90
20726;DHT22;10524;48.132;8.518;2023-07-31T09:50:52;27.20;99.90
20726;DHT22;10524;48.132;8.518;2023-07-31T09:53:18;27.30;99.90
20726;DHT22;10524;48.132;8.518;2023-07-31T09:55:44;28.10;99.90
20726;DHT22;10524;48.132;8.518;2023-07-31T09:58:11;27.60;99.90
20726;DHT22;10524;48.132;8.518;2023-07-31T10:00:38;27.10;99.90
20726;DHT22;10524;48.132;8.518;2023-07-31T10:03:10;28.40;99.90
20726;DHT22;10524;48.132;8.518;2023-07-31T10:05:43;28.90;99.90
20726;DHT22;10524;48.132;8.518;2023-07-31T10:08:13;29.70;99.90
20726;DHT22;10524;48.132;8.518;2023-07-31T10:10:42;29.40;99.90
20726;DHT22;10524;48.132;8.518;2023-07-31T10:13:08;29.60;99.90
20726;DHT22;10524;48.132;8.518;2023-07-31T10:15:34;31.20;99.90
20726;DHT22;10524;48.132;8.518;2023-07-31T10:18:01;32.50;99.10
20726;DHT22;10524;48.132;8.518;2023-07-31T10:20:28;33.10;98.70
20726;DHT22;10524;48.132;8.518;2023-07-31T10:22:57;32.30;98.10
20726;DHT22;10524;48.132;8.518;2023-07-31T10:25:26;32.10;98.50
20726;DHT22;10524;48.132;8.518;2023-07-31T10:27:53;31.00;98.80
20726;DHT22;10524;48.132;8.518;2023-07-31T10:30:21;30.10;99.20
20726;DHT22;10524;48.132;8.518;2023-07-31T10:32:48;29.90;98.90
20726;DHT22;10524;48.132;8.518;2023-07-31T10:35:16;30.60;99.00
20726;DHT22;10524;48.132;8.518;2023-07-31T10:37:43;30.10;99.20
20726;DHT22;10524;48.132;8.518;2023-07-31T10:40:19;29.90;99.40
20726;DHT22;10524;48.132;8.518;2023-07-31T10:42:51;30.20;99.40
20726;DHT22;10524;48.132;8.518;2023-07-31T10:45:25;30.90;98.70
20726;DHT22;10524;48.132;8.518;2023-07-31T10:48:02;31.20;98.80
20726;DHT22;10524;48.132;8.518;2023-07-31T10:50:29;31.40;98.60
20726;DHT22;10524;48.132;8.518;2023-07-31T10:52:56;31.60;97.90
20726;DHT22;10524;48.132;8.518;2023-07-31T10:55:30;32.10;98.00
20726;DHT22;10524;48.132;8.518;2023-07-31T10:58:10;32.40;97.40
20726;DHT22;10524;48.132;8.518;2023-07-31T11:00:38;32.90;97.00
20726;DHT22;10524;48.132;8.518;2023-07-31T11:05:45;33.30;95.80
20726;DHT22;10524;48.132;8.518;2023-07-31T11:08:12;32.80;96.50
20726;DHT22;10524;48.132;8.518;2023-07-31T11:10:38;33.10;96.80
20726;DHT22;10524;48.132;8.518;2023-07-31T11:13:05;33.30;96.30
20726;DHT22;10524;48.132;8.518;2023-07-31T11:15:31;32.70;96.30
20726;DHT22;10524;48.132;8.518;2023-07-31T11:17:56;30.60;96.90
20726;DHT22;10524;48.132;8.518;2023-07-31T11:20:24;29.00;97.80
20726;DHT22;10524;48.132;8.518;2023-07-31T11:22:50;28.40;98.40
20726;DHT22;10524;48.132;8.518;2023-07-31T11:25:16;27.70;98.70
20726;DHT22;10524;48.132;8.518;2023-07-31T11:27:43;27.60;98.70
20726;DHT22;10524;48.132;8.518;2023-07-31T11:30:09;28.50;98.50
20726;DHT22;10524;48.132;8.518;2023-07-31T11:32:38;29.30;98.30
20726;DHT22;10524;48.132;8.518;2023-07-31T11:35:04;30.40;97.80
20726;DHT22;10524;48.132;8.518;2023-07-31T11:37:44;29.70;97.80
20726;DHT22;10524;48.132;8.518;2023-07-31T11:40:11;29.30;98.00
20726;DHT22;10524;48.132;8.518;2023-07-31T11:42:36;28.60;98.20
20726;DHT22;10524;48.132;8.518;2023-07-31T11:45:08;28.80;98.80
20726;DHT22;10524;48.132;8.518;2023-07-31T11:47:38;31.90;99.00
20726;DHT22;10524;48.132;8.518;2023-07-31T11:50:05;33.00;96.60
20726;DHT22;10524;48.132;8.518;2023-07-31T11:52:35;34.10;95.40
20726;DHT22;10524;48.132;8.518;2023-07-31T11:55:02;33.50;95.10
20726;DHT22;10524;48.132;8.518;2023-07-31T11:57:29;32.80;95.40
20726;DHT22;10524;48.132;8.518;2023-07-31T11:59:55;33.70;95.70
20726;DHT22;10524;48.132;8.518;2023-07-31T12:02:22;34.60;94.60
20726;DHT22;10524;48.132;8.518;2023-07-31T12:04:48;34.50;94.40
20726;DHT22;10524;48.132;8.518;2023-07-31T12:07:14;35.60;94.40
20726;DHT22;10524;48.132;8.518;2023-07-31T12:09:51;35.50;93.90
20726;DHT22;10524;48.132;8.518;2023-07-31T12:12:22;35.60;93.90
20726;DHT22;10524;48.132;8.518;2023-07-31T12:14:48;35.50;94.10
20726;DHT22;10524;48.132;8.518;2023-07-31T12:17:16;32.40;94.20
20726;DHT22;10524;48.132;8.518;2023-07-31T12:19:42;30.70;95.30
20726;DHT22;10524;48.132;8.518;2023-07-31T12:22:12;30.20;95.70
20726;DHT22;10524;48.132;8.518;2023-07-31T12:24:40;29.70;96.60
20726;DHT22;10524;48.132;8.518;2023-07-31T12:27:14;29.90;96.70
20726;DHT22;10524;48.132;8.518;2023-07-31T12:29:41;30.70;96.60
20726;DHT22;10524;48.132;8.518;2023-07-31T12:32:24;32.00;96.10
20726;DHT22;10524;48.132;8.518;2023-07-31T12:34:50;31.50;95.30
20726;DHT22;10524;48.132;8.518;2023-07-31T12:37:16;30.20;95.90
20726;DHT22;10524;48.132;8.518;2023-07-31T12:39:42;29.00;95.80
20726;DHT22;10524;48.132;8.518;2023-07-31T12:42:07;27.50;97.30
20726;DHT22;10524;48.132;8.518;2023-07-31T12:44:33;27.50;98.00
20726;DHT22;10524;48.132;8.518;2023-07-31T12:46:59;28.10;97.60
20726;DHT22;10524;48.132;8.518;2023-07-31T12:49:24;28.40;97.60
20726;DHT22;10524;48.132;8.518;2023-07-31T12:51:50;27.90;97.60
20726;DHT22;10524;48.132;8.518;2023-07-31T12:54:15;28.10;97.90
20726;DHT22;10524;48.132;8.518;2023-07-31T12:56:41;28.70;97.20
20726;DHT22;10524;48.132;8.518;2023-07-31T12:59:07;30.20;97.20
20726;DHT22;10524;48.132;8.518;2023-07-31T13:01:32;31.40;96.30
20726;DHT22;10524;48.132;8.518;2023-07-31T13:03:58;32.10;95.30
20726;DHT22;10524;48.132;8.518;2023-07-31T13:06:25;31.50;95.20
20726;DHT22;10524;48.132;8.518;2023-07-31T13:08:51;31.30;95.30
20726;DHT22;10524;48.132;8.518;2023-07-31T13:11:16;31.30;95.30
20726;DHT22;10524;48.132;8.518;2023-07-31T13:13:42;31.70;94.80
20726;DHT22;10524;48.132;8.518;2023-07-31T13:16:08;31.50;95.00
20726;DHT22;10524;48.132;8.518;2023-07-31T13:18:33;31.10;95.30
20726;DHT22;10524;48.132;8.518;2023-07-31T13:20:59;31.00;94.90
20726;DHT22;10524;48.132;8.518;2023-07-31T13:23:25;31.30;95.00
20726;DHT22;10524;48.132;8.518;2023-07-31T13:25:50;31.90;95.10
20726;DHT22;10524;48.132;8.518;2023-07-31T13:28:16;31.70;95.40
20726;DHT22;10524;48.132;8.518;2023-07-31T13:30:42;31.90;95.00
20726;DHT22;10524;48.132;8.518;2023-07-31T13:33:07;32.80;94.70
20726;DHT22;10524;48.132;8.518;2023-07-31T13:35:33;32.50;94.70
20726;DHT22;10524;48.132;8.518;2023-07-31T13:37:59;32.10;94.30
20726;DHT22;10524;48.132;8.518;2023-07-31T13:40:24;32.60;93.60
20726;DHT22;10524;48.132;8.518;2023-07-31T13:42:50;32.50;93.90
20726;DHT22;10524;48.132;8.518;2023-07-31T13:45:15;32.00;93.90
20726;DHT22;10524;48.132;8.518;2023-07-31T13:47:41;30.80;94.30
20726;DHT22;10524;48.132;8.518;2023-07-31T13:50:07;29.50;94.50
20726;DHT22;10524;48.132;8.518;2023-07-31T13:52:33;28.70;95.40
20726;DHT22;10524;48.132;8.518;2023-07-31T13:54:58;27.90;96.40
20726;DHT22;10524;48.132;8.518;2023-07-31T13:57:24;29.00;96.10
20726;DHT22;10524;48.132;8.518;2023-07-31T13:59:49;28.90;96.00
20726;DHT22;10524;48.132;8.518;2023-07-31T14:02:15;28.70;96.20
20726;DHT22;10524;48.132;8.518;2023-07-31T14:04:41;28.10;96.90
20726;DHT22;10524;48.132;8.518;2023-07-31T14:07:07;26.90;97.60
20726;DHT22;10524;48.132;8.518;2023-07-31T14:09:32;26.60;97.90
20726;DHT22;10524;48.132;8.518;2023-07-31T14:11:58;26.20;97.50
20726;DHT22;10524;48.132;8.518;2023-07-31T14:14:24;26.30;97.90
20726;DHT22;10524;48.132;8.518;2023-07-31T14:16:49;28.30;97.20
20726;DHT22;10524;48.132;8.518;2023-07-31T14:19:15;29.90;96.20
20726;DHT22;10524;48.132;8.518;2023-07-31T14:21:41;30.30;96.10
20726;DHT22;10524;48.132;8.518;2023-07-31T14:24:06;30.20;95.90
20726;DHT22;10524;48.132;8.518;2023-07-31T14:26:32;28.70;96.30
20726;DHT22;10524;48.132;8.518;2023-07-31T14:28:57;27.80;97.30
20726;DHT22;10524;48.132;8.518;2023-07-31T14:31:23;28.10;97.10
20726;DHT22;10524;48.132;8.518;2023-07-31T14:33:49;27.70;96.60
20726;DHT22;10524;48.132;8.518;2023-07-31T14:36:15;27.30;97.50
20726;DHT22;10524;48.132;8.518;2023-07-31T14:38:40;26.80;98.00
20726;DHT22;10524;48.132;8.518;2023-07-31T14:41:06;26.50;98.00
20726;DHT22;10524;48.132;8.518;2023-07-31T14:43:32;26.10;97.70
20726;DHT22;10524;48.132;8.518;2023-07-31T14:45:58;25.80;98.40
20726;DHT22;10524;48.132;8.518;2023-07-31T14:48:28;25.70;98.40
20726;DHT22;10524;48.132;8.518;2023-07-31T14:50:54;25.30;99.00
20726;DHT22;10524;48.132;8.518;2023-07-31T14:53:21;25.40;98.80
20726;DHT22;10524;48.132;8.518;2023-07-31T14:55:47;25.60;98.80
20726;DHT22;10524;48.132;8.518;2023-07-31T14:58:12;25.30;98.80
20726;DHT22;10524;48.132;8.518;2023-07-31T15:00:39;24.80;99.40
20726;DHT22;10524;48.132;8.518;2023-07-31T15:03:05;24.80;99.90
20726;DHT22;10524;48.132;8.518;2023-07-31T15:05:31;24.90;99.70
20726;DHT22;10524;48.132;8.518;2023-07-31T15:07:57;25.20;99.70
20726;DHT22;10524;48.132;8.518;2023-07-31T15:10:22;25.50;99.70
20726;DHT22;10524;48.132;8.518;2023-07-31T15:12:48;25.60;99.70
20726;DHT22;10524;48.132;8.518;2023-07-31T15:15:15;25.60;99.90
20726;DHT22;10524;48.132;8.518;2023-07-31T15:17:41;25.50;99.70
20726;DHT22;10524;48.132;8.518;2023-07-31T15:20:07;25.50;99.90
20726;DHT22;10524;48.132;8.518;2023-07-31T15:22:33;25.60;99.80
20726;DHT22;10524;48.132;8.518;2023-07-31T15:24:59;25.10;99.50
20726;DHT22;10524;48.132;8.518;2023-07-31T15:27:24;24.80;99.90
20726;DHT22;10524;48.132;8.518;2023-07-31T15:29:50;24.90;99.90
20726;DHT22;10524;48.132;8.518;2023-07-31T15:32:17;24.90;99.90
20726;DHT22;10524;48.132;8.518;2023-07-31T15:34:43;24.80;99.90
20726;DHT22;10524;48.132;8.518;2023-07-31T15:37:09;24.80;99.90